Time;durP1;ratioP1;P1;durP2;ratioP2;P2;SDS_P1;SDS_P2;PMS_P1;PMS_P2;Temp;Humidity;BMP_temperature;BMP_pressure;BME280_temperature;BME280_humidity;BME280_pressure;Samples;Min_cycle;Max_cycle;Signal;HPM_P1;HPM_P2
2021/10/14 00:01:23;;;;;;;2.33;1.55;;;;;;;;;;4393487;32;20137;-72
2021/10/14 00:06:29;;;;;;;3.33;1.90;;;;;;;;;;3826878;37;20065;-71
2021/10/14 00:08:56;;;;;;;3.15;1.45;;;;;;;;;;4378223;32;20088;-72
2021/10/14 00:11:23;;;;;;;2.28;1.60;;;;;;;;;;4404471;32;20185;-73
2021/10/14 00:13:50;;;;;;;2.58;1.62;;;;;;;;;;4378160;32;20070;-72
2021/10/14 00:16:17;;;;;;;1.45;1.20;;;;;;;;;;4378321;32;20089;-73
2021/10/14 00:18:44;;;;;;;6.28;1.75;;;;;;;;;;4378372;32;20057;-71
2021/10/14 00:21:11;;;;;;;4.47;1.62;;;;;;;;;;4365444;32;20092;-72
2021/10/14 00:23:37;;;;;;;2.62;1.48;;;;;;;;;;4390554;32;20142;-73
2021/10/14 00:26:05;;;;;;;2.50;1.37;;;;;;;;;;4377993;32;20448;-72
2021/10/14 00:28:31;;;;;;;2.40;1.23;;;;;;;;;;4353165;32;20088;-73
2021/10/14 00:30:58;;;;;;;2.28;1.70;;;;;;;;;;4377792;32;20088;-71
2021/10/14 00:33:24;;;;;;;2.62;1.37;;;;;;;;;;4377868;32;20078;-72
2021/10/14 00:38:17;;;;;;;2.33;1.48;;;;;;;;;;4376877;32;20062;-72
2021/10/14 00:40:44;;;;;;;2.55;1.73;;;;;;;;;;4375307;32;20173;-72
2021/10/14 00:43:11;;;;;;;2.58;1.90;;;;;;;;;;4350476;32;20097;-72
2021/10/14 00:45:37;;;;;;;1.37;1.08;;;;;;;;;;4362614;32;20160;-71
2021/10/14 00:48:04;;;;;;;2.92;1.42;;;;;;;;;;4362436;32;20078;-72
2021/10/14 00:50:30;;;;;;;4.97;1.75;;;;;;;;;;4374977;32;20077;-73
2021/10/14 00:52:57;;;;;;;2.78;1.55;;;;;;;;;;4375042;32;20074;-71
2021/10/14 00:55:23;;;;;;;2.33;1.42;;;;;;;;;;4337706;32;20077;-71
2021/10/14 00:57:50;;;;;;;1.77;1.37;;;;;;;;;;4362716;32;20154;-72
2021/10/14 01:00:18;;;;;;;5.12;1.85;;;;;;;;;;4350022;32;20061;-72
2021/10/14 01:02:44;;;;;;;2.83;1.52;;;;;;;;;;4337483;32;20515;-72
2021/10/14 01:05:11;;;;;;;2.28;1.50;;;;;;;;;;4349748;32;20149;-73
2021/10/14 01:07:38;;;;;;;2.87;1.98;;;;;;;;;;4350512;32;20255;-71
2021/10/14 01:10:05;;;;;;;4.75;1.65;;;;;;;;;;4350455;32;20096;-72
2021/10/14 01:12:31;;;;;;;2.67;1.75;;;;;;;;;;4362285;32;20074;-71
2021/10/14 01:14:58;;;;;;;4.90;1.80;;;;;;;;;;4362285;32;20066;-74
2021/10/14 01:17:24;;;;;;;3.15;1.40;;;;;;;;;;4329763;32;20109;-71
2021/10/14 01:19:51;;;;;;;2.62;1.75;;;;;;;;;;4339900;32;20101;-72
2021/10/14 01:22:17;;;;;;;4.60;1.77;;;;;;;;;;4364809;32;20071;-72
2021/10/14 01:24:47;;;;;;;3.05;1.67;;;;;;;;;;4364800;32;20079;-72
2021/10/14 01:27:13;;;;;;;2.50;1.50;;;;;;;;;;4328484;32;20154;-72
2021/10/14 01:29:40;;;;;;;2.85;1.80;;;;;;;;;;4339638;32;20077;-72
2021/10/14 01:32:06;;;;;;;4.53;1.90;;;;;;;;;;4364566;32;20073;-72
2021/10/14 01:34:33;;;;;;;3.37;1.73;;;;;;;;;;4339838;32;20078;-72
2021/10/14 01:37:00;;;;;;;2.97;1.67;;;;;;;;;;4352006;32;20092;-72
2021/10/14 01:39:26;;;;;;;2.40;1.62;;;;;;;;;;4364783;32;20566;-72
2021/10/14 01:41:53;;;;;;;2.10;1.90;;;;;;;;;;4328273;32;20167;-72
2021/10/14 01:44:19;;;;;;;2.35;1.60;;;;;;;;;;4339906;32;20078;-71
2021/10/14 01:46:46;;;;;;;3.08;1.85;;;;;;;;;;4364075;32;20094;-72
2021/10/14 01:49:12;;;;;;;2.58;1.60;;;;;;;;;;4364485;32;20516;-72
2021/10/14 01:51:39;;;;;;;2.72;1.80;;;;;;;;;;4351818;32;20086;-72
2021/10/14 01:54:05;;;;;;;2.35;1.73;;;;;;;;;;4351632;32;20157;-71
2021/10/14 01:56:32;;;;;;;2.85;1.83;;;;;;;;;;4352074;32;20069;-73
2021/10/14 01:58:58;;;;;;;2.90;2.00;;;;;;;;;;4339663;32;20077;-72
2021/10/14 02:01:25;;;;;;;4.78;2.03;;;;;;;;;;4340300;32;20113;-72
2021/10/14 02:03:51;;;;;;;2.62;1.90;;;;;;;;;;4352765;32;20096;-71
2021/10/14 02:06:17;;;;;;;1.90;1.65;;;;;;;;;;4363843;32;20070;-72
2021/10/14 02:08:44;;;;;;;2.72;1.92;;;;;;;;;;4351945;32;20089;-71
2021/10/14 02:11:10;;;;;;;2.87;1.80;;;;;;;;;;4339901;32;20074;-72
2021/10/14 02:13:37;;;;;;;3.25;2.10;;;;;;;;;;4363629;32;20082;-71
2021/10/14 02:16:04;;;;;;;4.03;1.87;;;;;;;;;;4377916;32;20165;-72
2021/10/14 02:18:30;;;;;;;2.97;2.00;;;;;;;;;;4339212;32;20114;-72
2021/10/14 02:20:57;;;;;;;2.67;1.90;;;;;;;;;;4363984;32;20070;-72
2021/10/14 02:23:23;;;;;;;3.92;2.10;;;;;;;;;;4363777;32;20062;-72
2021/10/14 02:25:50;;;;;;;3.00;1.52;;;;;;;;;;4377508;32;20163;-71
2021/10/14 02:28:16;;;;;;;3.00;1.60;;;;;;;;;;4363092;32;20070;-72
2021/10/14 02:30:43;;;;;;;1.98;1.70;;;;;;;;;;4351485;32;20098;-71
2021/10/14 02:33:10;;;;;;;5.28;2.00;;;;;;;;;;4363657;32;20093;-72
2021/10/14 02:35:36;;;;;;;2.20;1.60;;;;;;;;;;4326807;32;20169;-72
2021/10/14 02:38:03;;;;;;;3.40;1.73;;;;;;;;;;4363334;32;20086;-74
2021/10/14 02:40:29;;;;;;;3.08;1.92;;;;;;;;;;4338824;32;20153;-71
2021/10/14 02:42:56;;;;;;;3.12;1.60;;;;;;;;;;4363672;32;20090;-72
2021/10/14 02:45:22;;;;;;;5.68;2.00;;;;;;;;;;4362797;32;20597;-71
2021/10/14 02:47:49;;;;;;;3.30;1.62;;;;;;;;;;4338768;32;20097;-72
2021/10/14 02:50:16;;;;;;;2.75;1.52;;;;;;;;;;4377302;32;20077;-73
2021/10/14 02:52:42;;;;;;;4.32;3.05;;;;;;;;;;4338710;32;20097;-71
2021/10/14 02:55:09;;;;;;;3.08;1.90;;;;;;;;;;4338545;32;20512;-71
2021/10/14 02:57:35;;;;;;;6.95;2.15;;;;;;;;;;4350748;32;20093;-71
2021/10/14 03:00:03;;;;;;;5.87;1.90;;;;;;;;;;4363307;32;20093;-71
2021/10/14 03:02:30;;;;;;;2.12;1.73;;;;;;;;;;4350815;32;20161;-71
2021/10/14 03:04:56;;;;;;;4.35;2.17;;;;;;;;;;4338306;32;20105;-71
2021/10/14 03:07:23;;;;;;;2.95;1.80;;;;;;;;;;4351125;32;20223;-72
2021/10/14 03:09:49;;;;;;;5.30;2.00;;;;;;;;;;4376671;32;20501;-72
2021/10/14 03:12:16;;;;;;;3.37;1.73;;;;;;;;;;4362819;32;20465;-71
2021/10/14 03:14:42;;;;;;;3.85;2.00;;;;;;;;;;4338428;32;20086;-71
2021/10/14 03:17:09;;;;;;;3.87;1.70;;;;;;;;;;4376730;32;20081;-72
2021/10/14 03:19:36;;;;;;;4.35;1.92;;;;;;;;;;4362790;32;20078;-71
2021/10/14 03:22:03;;;;;;;3.65;1.95;;;;;;;;;;4338601;32;20108;-72
2021/10/14 03:24:30;;;;;;;3.17;1.80;;;;;;;;;;4350326;32;20063;-72
2021/10/14 03:26:57;;;;;;;6.85;1.90;;;;;;;;;;4338125;32;20101;-71
2021/10/14 03:29:23;;;;;;;2.75;1.85;;;;;;;;;;4350195;32;20082;-71
2021/10/14 03:31:50;;;;;;;4.53;2.37;;;;;;;;;;4362471;32;20070;-72
2021/10/14 03:34:16;;;;;;;3.53;1.92;;;;;;;;;;4362659;32;20086;-71
2021/10/14 03:36:42;;;;;;;3.72;1.62;;;;;;;;;;4337692;32;20089;-72
2021/10/14 03:39:09;;;;;;;2.90;2.08;;;;;;;;;;4362367;32;20600;-71
2021/10/14 03:41:36;;;;;;;3.90;2.20;;;;;;;;;;4338086;32;20092;-72
2021/10/14 03:44:02;;;;;;;4.70;2.17;;;;;;;;;;4350205;32;20089;-72
2021/10/14 03:46:29;;;;;;;3.72;1.90;;;;;;;;;;4338171;32;20082;-71
2021/10/14 03:48:55;;;;;;;7.30;1.75;;;;;;;;;;4337863;32;20074;-72
2021/10/14 03:51:22;;;;;;;3.78;1.95;;;;;;;;;;4349951;32;20137;-72
2021/10/14 03:53:48;;;;;;;3.15;1.75;;;;;;;;;;4325271;32;20627;-71
2021/10/14 03:56:15;;;;;;;3.75;1.92;;;;;;;;;;4350656;32;20074;-72
2021/10/14 03:58:41;;;;;;;4.07;1.77;;;;;;;;;;4350135;32;20067;-71
2021/10/14 04:01:08;;;;;;;2.92;1.80;;;;;;;;;;4326148;32;20133;-72
2021/10/14 04:03:34;;;;;;;3.30;1.98;;;;;;;;;;4375917;32;20070;-72
2021/10/14 04:06:01;;;;;;;7.07;2.03;;;;;;;;;;4376107;32;20108;-71
2021/10/14 04:08:27;;;;;;;5.82;1.85;;;;;;;;;;4350256;32;20063;-72
2021/10/14 04:10:54;;;;;;;4.00;2.00;;;;;;;;;;4362215;32;20090;-72
2021/10/14 04:13:20;;;;;;;4.22;2.00;;;;;;;;;;4362311;32;20084;-72
2021/10/14 04:15:48;;;;;;;4.05;2.03;;;;;;;;;;4350292;32;20109;-71
2021/10/14 04:18:15;;;;;;;3.42;2.00;;;;;;;;;;4350265;32;20066;-72
2021/10/14 04:20:41;;;;;;;5.65;1.73;;;;;;;;;;4337958;32;20094;-72
2021/10/14 04:23:08;;;;;;;2.67;1.77;;;;;;;;;;4363337;32;20071;-71
2021/10/14 04:25:35;;;;;;;3.65;1.92;;;;;;;;;;4369107;32;20485;-71
2021/10/14 04:28:02;;;;;;;3.78;1.85;;;;;;;;;;4366318;32;20078;-72
2021/10/14 04:30:29;;;;;;;2.15;1.60;;;;;;;;;;4338077;32;20074;-71
2021/10/14 04:32:55;;;;;;;2.50;1.60;;;;;;;;;;4338020;32;20157;-72
2021/10/14 04:35:22;;;;;;;5.12;1.83;;;;;;;;;;4362288;32;20104;-72
2021/10/14 04:37:48;;;;;;;3.40;2.00;;;;;;;;;;4349948;32;20078;-71
2021/10/14 04:40:15;;;;;;;4.03;2.10;;;;;;;;;;4350735;32;20081;-72
2021/10/14 04:42:42;;;;;;;3.40;1.60;;;;;;;;;;4362092;32;20174;-72
2021/10/14 04:45:08;;;;;;;2.35;1.50;;;;;;;;;;4325014;32;20089;-72
2021/10/14 04:47:36;;;;;;;2.47;1.30;;;;;;;;;;4349938;32;20058;-72
2021/10/14 04:50:03;;;;;;;4.28;1.48;;;;;;;;;;4349541;32;20082;-72
2021/10/14 04:52:29;;;;;;;3.45;1.30;;;;;;;;;;4339241;32;20081;-72
2021/10/14 04:54:56;;;;;;;2.17;1.35;;;;;;;;;;4327689;32;20455;-71
2021/10/14 04:57:22;;;;;;;3.42;1.50;;;;;;;;;;4365218;32;20093;-73
2021/10/14 04:59:49;;;;;;;5.18;2.12;;;;;;;;;;4340133;32;20437;-71
2021/10/14 05:02:15;;;;;;;2.53;1.60;;;;;;;;;;4352286;32;20074;-72
2021/10/14 05:04:42;;;;;;;5.40;2.10;;;;;;;;;;4352828;32;20085;-72
2021/10/14 05:07:08;;;;;;;2.17;1.45;;;;;;;;;;4352750;32;20070;-71
2021/10/14 05:09:34;;;;;;;5.90;2.75;;;;;;;;;;4364572;32;20078;-73
2021/10/14 05:12:01;;;;;;;2.87;1.65;;;;;;;;;;4364522;32;20062;-72
2021/10/14 05:14:29;;;;;;;2.08;1.27;;;;;;;;;;4364691;32;20066;-71
2021/10/14 05:16:55;;;;;;;2.90;1.45;;;;;;;;;;4364901;32;20085;-72
2021/10/14 05:19:22;;;;;;;1.92;1.45;;;;;;;;;;4340237;32;20101;-72
2021/10/14 05:21:50;;;;;;;6.50;2.10;;;;;;;;;;4352454;32;20074;-72
2021/10/14 05:24:16;;;;;;;3.25;1.55;;;;;;;;;;4364505;32;20081;-71
2021/10/14 05:26:43;;;;;;;6.72;2.05;;;;;;;;;;4378243;32;20444;-69
2021/10/14 05:29:10;;;;;;;2.28;1.80;;;;;;;;;;4340202;32;20505;-74
2021/10/14 05:31:36;;;;;;;1.85;1.23;;;;;;;;;;4339661;32;20152;-74
2021/10/14 05:34:03;;;;;;;3.40;1.87;;;;;;;;;;4364608;32;20097;-73
2021/10/14 05:36:30;;;;;;;2.80;1.62;;;;;;;;;;4339896;32;20078;-72
2021/10/14 05:38:56;;;;;;;2.78;1.48;;;;;;;;;;4352059;32;20092;-69
2021/10/14 05:41:23;;;;;;;7.07;2.47;;;;;;;;;;4351938;32;20097;-73
2021/10/14 05:43:50;;;;;;;6.75;2.50;;;;;;;;;;4364339;32;20070;-71
2021/10/14 05:46:16;;;;;;;2.83;1.48;;;;;;;;;;4351690;32;20078;-73
2021/10/14 05:48:43;;;;;;;3.33;1.48;;;;;;;;;;4339599;32;20074;-73
2021/10/14 05:51:09;;;;;;;1.87;1.17;;;;;;;;;;4364599;32;20507;-71
2021/10/14 05:53:50;;;;;;;1.75;1.17;;;;;;;;;;3857486;37;20058;-71
2021/10/14 05:56:17;;;;;;;6.32;1.65;;;;;;;;;;4393460;32;20063;-71
2021/10/14 05:58:44;;;;;;;4.90;1.92;;;;;;;;;;4393022;32;20085;-71
2021/10/14 06:01:10;;;;;;;3.15;1.62;;;;;;;;;;4392911;32;20073;-71
2021/10/14 06:03:37;;;;;;;8.07;1.77;;;;;;;;;;4418958;32;20072;-72
2021/10/14 06:06:03;;;;;;;5.95;2.00;;;;;;;;;;4406438;32;20443;-69
2021/10/14 06:08:30;;;;;;;1.77;1.42;;;;;;;;;;4392948;32;20149;-72
2021/10/14 06:10:57;;;;;;;3.62;1.50;;;;;;;;;;4392576;32;20530;-70
2021/10/14 06:13:23;;;;;;;3.28;1.65;;;;;;;;;;4393618;32;20527;-65
2021/10/14 06:15:50;;;;;;;5.18;1.77;;;;;;;;;;4393774;32;20089;-66
2021/10/14 06:18:16;;;;;;;3.30;1.52;;;;;;;;;;4406481;32;20072;-64
2021/10/14 06:20:43;;;;;;;4.12;1.50;;;;;;;;;;4380415;32;20081;-66
2021/10/14 06:23:09;;;;;;;4.53;1.87;;;;;;;;;;4418449;32;20088;-64
2021/10/14 06:25:36;;;;;;;1.95;1.45;;;;;;;;;;4418151;32;20089;-66
2021/10/14 06:28:03;;;;;;;2.72;1.35;;;;;;;;;;4405652;32;20071;-65
2021/10/14 06:30:32;;;;;;;2.22;1.60;;;;;;;;;;4380595;32;20080;-64
2021/10/14 06:32:59;;;;;;;4.12;1.58;;;;;;;;;;4405517;32;20070;-65
2021/10/14 06:35:26;;;;;;;4.12;1.55;;;;;;;;;;4392448;32;20085;-65
2021/10/14 06:37:55;;;;;;;4.47;1.55;;;;;;;;;;4405487;32;20072;-65
2021/10/14 06:40:21;;;;;;;2.78;1.55;;;;;;;;;;4417883;32;20079;-65
2021/10/14 06:42:48;;;;;;;2.28;1.50;;;;;;;;;;4380142;32;20158;-64
2021/10/14 06:45:15;;;;;;;6.00;1.77;;;;;;;;;;4393230;32;20149;-65
2021/10/14 06:47:41;;;;;;;5.22;2.05;;;;;;;;;;4393269;32;20071;-65
2021/10/14 06:50:08;;;;;;;5.10;2.08;;;;;;;;;;4406200;32;20608;-66
2021/10/14 06:52:34;;;;;;;4.12;1.90;;;;;;;;;;4379918;32;20057;-65
2021/10/14 06:55:01;;;;;;;2.72;1.67;;;;;;;;;;4394057;32;20077;-65
2021/10/14 06:57:28;;;;;;;3.10;1.60;;;;;;;;;;4392711;32;20076;-65
2021/10/14 06:59:54;;;;;;;5.82;1.40;;;;;;;;;;4405578;32;20077;-64
2021/10/14 07:02:21;;;;;;;8.18;1.92;;;;;;;;;;4392546;32;20500;-64
2021/10/14 07:04:47;;;;;;;4.87;2.03;;;;;;;;;;4409492;32;20166;-65
2021/10/14 07:07:14;;;;;;;5.47;3.30;;;;;;;;;;4408731;32;20498;-65
2021/10/14 07:09:40;;;;;;;8.57;3.35;;;;;;;;;;4409954;32;20524;-65
2021/10/14 07:12:13;;;;;;;7.87;4.75;;;;;;;;;;4414162;32;20247;-65
2021/10/14 07:14:40;;;;;;;11.18;5.70;;;;;;;;;;4384871;32;20065;-63
2021/10/14 07:17:06;;;;;;;6.12;4.25;;;;;;;;;;4383610;32;20085;-65
2021/10/14 07:19:35;;;;;;;0.90;0.75;;;;;;;;;;4370394;32;20097;-63
2021/10/14 07:22:02;;;;;;;3.22;2.17;;;;;;;;;;4382679;32;20512;-64
2021/10/14 07:24:32;;;;;;;4.85;1.95;;;;;;;;;;4395798;32;20078;-65
2021/10/14 07:26:59;;;;;;;8.38;4.68;;;;;;;;;;4372766;32;20156;-64
2021/10/14 07:29:27;;;;;;;7.03;3.10;;;;;;;;;;4407309;32;20073;-65
2021/10/14 07:31:54;;;;;;;3.05;1.23;;;;;;;;;;4381668;32;20153;-64
2021/10/14 07:34:20;;;;;;;2.10;1.45;;;;;;;;;;4382529;32;20085;-65
2021/10/14 07:36:47;;;;;;;6.53;3.67;;;;;;;;;;4382434;32;20089;-65
2021/10/14 07:39:13;;;;;;;8.75;4.45;;;;;;;;;;4394611;32;20162;-66
2021/10/14 07:41:40;;;;;;;8.23;4.90;;;;;;;;;;4396405;32;20074;-66
2021/10/14 07:44:07;;;;;;;7.78;4.35;;;;;;;;;;4384034;32;20061;-65
2021/10/14 07:46:33;;;;;;;3.87;2.45;;;;;;;;;;4394885;32;20103;-66
2021/10/14 07:49:00;;;;;;;18.65;9.32;;;;;;;;;;4384163;32;20069;-65
2021/10/14 07:51:26;;;;;;;9.70;6.10;;;;;;;;;;4395464;32;20104;-65
2021/10/14 07:53:53;;;;;;;2.22;1.80;;;;;;;;;;4385598;32;20077;-64
2021/10/14 07:56:20;;;;;;;11.35;3.03;;;;;;;;;;4383069;32;20073;-64
2021/10/14 07:58:47;;;;;;;8.93;2.90;;;;;;;;;;4381317;32;20499;-66
2021/10/14 08:01:13;;;;;;;5.50;2.40;;;;;;;;;;4381216;32;20444;-64
2021/10/14 08:03:40;;;;;;;4.95;1.55;;;;;;;;;;4393692;32;20078;-65
2021/10/14 08:06:06;;;;;;;9.25;2.08;;;;;;;;;;4381352;32;20144;-64
2021/10/14 08:08:33;;;;;;;7.68;2.53;;;;;;;;;;4393669;32;20086;-64
2021/10/14 08:11:03;;;;;;;4.80;1.92;;;;;;;;;;4407458;32;20601;-65
2021/10/14 08:13:33;;;;;;;5.95;1.92;;;;;;;;;;4371337;32;20656;-64
2021/10/14 08:16:00;;;;;;;4.20;1.92;;;;;;;;;;4380413;32;20077;-63
2021/10/14 08:18:27;;;;;;;3.05;1.33;;;;;;;;;;4381689;32;20074;-65
2021/10/14 08:20:57;;;;;;;3.35;1.77;;;;;;;;;;4393853;32;20080;-64
2021/10/14 08:23:24;;;;;;;4.40;1.98;;;;;;;;;;4368750;32;20093;-65
2021/10/14 08:25:51;;;;;;;9.10;1.95;;;;;;;;;;4381121;32;20100;-65
2021/10/14 08:28:19;;;;;;;3.45;1.90;;;;;;;;;;4405965;32;20207;-64
2021/10/14 08:30:47;;;;;;;3.15;2.12;;;;;;;;;;4393474;32;20081;-64
2021/10/14 08:33:14;;;;;;;3.25;1.60;;;;;;;;;;4381291;32;20069;-65
2021/10/14 08:35:41;;;;;;;8.02;2.65;;;;;;;;;;4380801;32;20592;-65
2021/10/14 08:38:09;;;;;;;3.97;2.12;;;;;;;;;;4394065;32;20516;-65
2021/10/14 08:40:35;;;;;;;4.85;2.22;;;;;;;;;;4368315;32;20081;-65
2021/10/14 08:43:05;;;;;;;8.48;2.30;;;;;;;;;;4393294;32;20081;-64
2021/10/14 08:45:35;;;;;;;4.05;1.80;;;;;;;;;;4381054;32;20092;-64
2021/10/14 08:48:02;;;;;;;6.80;2.03;;;;;;;;;;4380918;32;20085;-65
2021/10/14 08:50:30;;;;;;;5.50;2.72;;;;;;;;;;4380938;32;20181;-64
2021/10/14 08:52:57;;;;;;;8.23;1.90;;;;;;;;;;4380593;32;20084;-64
2021/10/14 08:55:24;;;;;;;6.85;2.20;;;;;;;;;;4405521;32;20534;-65
2021/10/14 08:57:50;;;;;;;6.87;1.98;;;;;;;;;;4380796;32;20503;-64
2021/10/14 09:00:17;;;;;;;6.43;2.12;;;;;;;;;;4406200;32;20100;-65
2021/10/14 09:02:44;;;;;;;5.68;2.30;;;;;;;;;;4406108;32;20065;-65
2021/10/14 09:05:14;;;;;;;1.15;0.93;;;;;;;;;;4379966;32;20444;-62
2021/10/14 09:07:40;;;;;;;6.05;1.67;;;;;;;;;;4405109;32;20605;-62
2021/10/14 09:10:12;;;;;;;8.68;2.30;;;;;;;;;;4387949;32;20069;-62
2021/10/14 09:12:47;;;;;;;6.18;1.92;;;;;;;;;;4380453;32;20083;-63
2021/10/14 09:15:17;;;;;;;9.68;2.22;;;;;;;;;;4393410;32;20061;-62
2021/10/14 09:17:54;;;;;;;5.20;1.67;;;;;;;;;;4393673;32;20085;-64
2021/10/14 09:20:37;;;;;;;4.20;1.90;;;;;;;;;;4368534;32;20168;-64
2021/10/14 09:23:13;;;;;;;4.32;2.10;;;;;;;;;;4406922;32;20156;-62
2021/10/14 09:25:40;;;;;;;;;;;;;;;;;;4393995;32;20156;-63
2021/10/14 09:28:23;;;;;;;6.20;2.08;;;;;;;;;;4395481;32;20390;-63
2021/10/14 09:31:00;;;;;;;4.90;1.92;;;;;;;;;;4401660;32;20444;-63
2021/10/14 09:33:31;;;;;;;4.50;1.92;;;;;;;;;;4356758;32;20101;-62
2021/10/14 09:36:14;;;;;;;4.25;2.47;;;;;;;;;;4393226;32;20073;-63
2021/10/14 09:38:42;;;;;;;4.32;2.30;;;;;;;;;;4384457;32;20074;-64
2021/10/14 09:41:10;;;;;;;4.43;1.83;;;;;;;;;;4376148;32;20143;-62
2021/10/14 09:43:36;;;;;;;3.85;2.10;;;;;;;;;;4395381;32;20167;-64
2021/10/14 09:46:03;;;;;;;2.78;1.90;;;;;;;;;;4380173;32;20073;-64
2021/10/14 09:48:30;;;;;;;3.45;1.50;;;;;;;;;;4376060;32;20093;-65
2021/10/14 09:50:56;;;;;;;4.12;2.15;;;;;;;;;;4376870;32;21121;-66
2021/10/14 09:53:27;;;;;;;8.13;1.95;;;;;;;;;;4393556;32;20169;-66
2021/10/14 09:55:55;;;;;;;4.32;2.12;;;;;;;;;;4389396;32;20101;-68
2021/10/14 09:58:24;;;;;;;3.95;1.70;;;;;;;;;;4388036;32;20140;-66
2021/10/14 10:00:52;;;;;;;3.92;1.95;;;;;;;;;;4392979;32;20069;-65
2021/10/14 10:03:20;;;;;;;7.07;1.80;;;;;;;;;;4400914;32;20209;-66
2021/10/14 10:05:55;;;;;;;7.15;1.90;;;;;;;;;;4391816;32;20077;-67
2021/10/14 10:08:37;;;;;;;7.03;1.33;;;;;;;;;;4385159;32;20128;-67
2021/10/14 10:11:06;;;;;;;7.30;2.15;;;;;;;;;;4373197;32;20069;-67
2021/10/14 10:13:35;;;;;;;9.90;3.33;;;;;;;;;;4387964;32;20073;-67
2021/10/14 10:16:18;;;;;;;9.65;2.20;;;;;;;;;;4375015;32;20101;-69
2021/10/14 10:18:46;;;;;;;7.40;1.95;;;;;;;;;;4385051;32;20516;-66
2021/10/14 10:21:31;;;;;;;5.15;1.80;;;;;;;;;;4376201;32;20117;-68
2021/10/14 10:24:03;;;;;;;9.18;1.80;;;;;;;;;;4403300;32;20066;-66
2021/10/14 10:26:36;;;;;;;7.47;1.70;;;;;;;;;;4391760;32;20066;-65
2021/10/14 10:29:15;;;;;;;5.00;1.55;;;;;;;;;;4378064;32;20094;-66
2021/10/14 10:31:55;;;;;;;4.90;1.90;;;;;;;;;;4402138;32;20136;-66
2021/10/14 10:37:15;;;;;;;6.20;2.00;;;;;;;;;;4393930;32;20065;-67
2021/10/14 10:39:46;;;;;;;7.60;2.00;;;;;;;;;;4405551;32;20061;-67
2021/10/14 10:42:17;;;;;;;9.32;2.55;;;;;;;;;;4382333;32;20076;-66
2021/10/14 10:44:44;;;;;;;5.87;2.00;;;;;;;;;;4392228;32;20073;-66
2021/10/14 10:47:36;;;;;;;8.48;2.10;;;;;;;;;;4398253;32;20083;-66
2021/10/14 10:50:03;;;;;;;5.93;1.77;;;;;;;;;;4401325;32;20081;-67
2021/10/14 10:52:34;;;;;;;5.57;2.72;;;;;;;;;;4390265;32;20583;-67
2021/10/14 10:55:01;;;;;;;5.00;1.83;;;;;;;;;;4387045;32;20136;-68
2021/10/14 10:58:04;;;;;;;10.60;1.67;;;;;;;;;;4393549;32;20066;-63
2021/10/14 11:00:31;;;;;;;3.97;1.83;;;;;;;;;;4348661;32;20098;-67
2021/10/14 11:03:06;;;;;;;12.73;2.45;;;;;;;;;;4382809;32;20061;-68
2021/10/14 11:05:44;;;;;;;7.15;2.20;;;;;;;;;;4397950;32;20101;-65
2021/10/14 11:08:17;;;;;;;4.15;1.58;;;;;;;;;;4384425;32;20197;-65
2021/10/14 11:10:58;;;;;;;7.07;1.65;;;;;;;;;;4376695;32;20065;-64
2021/10/14 11:13:34;;;;;;;7.05;1.73;;;;;;;;;;4385466;32;20504;-64
2021/10/14 11:16:00;;;;;;;6.30;2.05;;;;;;;;;;4380598;32;20081;-63
2021/10/14 11:18:28;;;;;;;5.05;2.35;;;;;;;;;;4388279;32;20162;-64
2021/10/14 11:21:05;;;;;;;6.53;1.58;;;;;;;;;;4391123;32;20089;-64
2021/10/14 11:23:42;;;;;;;10.02;2.05;;;;;;;;;;4389474;32;20073;-63
2021/10/14 11:26:43;;;;;;;5.78;1.90;;;;;;;;;;4391573;32;20173;-65
2021/10/14 11:29:21;;;;;;;3.45;1.70;;;;;;;;;;4398535;32;20078;-64
2021/10/14 11:32:00;;;;;;;5.18;1.90;;;;;;;;;;4389688;32;20570;-68
2021/10/14 11:34:27;;;;;;;5.37;1.60;;;;;;;;;;4387713;32;20070;-65
2021/10/14 11:37:02;;;;;;;4.68;1.70;;;;;;;;;;4377239;32;20069;-64
2021/10/14 11:39:55;;;;;;;2.85;1.67;;;;;;;;;;4391642;32;20497;-64
2021/10/14 11:42:22;;;;;;;5.78;1.85;;;;;;;;;;4380631;32;20084;-65
2021/10/14 11:44:58;;;;;;;9.60;3.00;;;;;;;;;;4375200;32;20254;-66
2021/10/14 11:47:25;;;;;;;5.50;2.03;;;;;;;;;;4395337;32;20102;-67
2021/10/14 11:50:00;;;;;;;4.82;1.80;;;;;;;;;;4388207;32;20507;-65
2021/10/14 11:52:26;;;;;;;3.78;1.83;;;;;;;;;;4382617;32;20154;-68
2021/10/14 11:54:53;;;;;;;5.95;1.80;;;;;;;;;;4391738;32;20088;-70
2021/10/14 11:57:29;;;;;;;3.53;1.75;;;;;;;;;;4378481;32;20153;-67
2021/10/14 11:59:56;;;;;;;5.78;1.55;;;;;;;;;;4378846;32;20134;-67
2021/10/14 12:02:23;;;;;;;3.78;1.70;;;;;;;;;;4379076;32;20439;-65
2021/10/14 12:04:53;;;;;;;4.47;1.70;;;;;;;;;;4366229;32;20090;-65
2021/10/14 12:07:26;;;;;;;4.62;2.15;;;;;;;;;;4366857;32;20074;-64
2021/10/14 12:09:54;;;;;;;3.55;1.48;;;;;;;;;;4374407;32;20062;-68
2021/10/14 12:12:24;;;;;;;4.43;1.55;;;;;;;;;;4378943;32;20500;-66
2021/10/14 12:15:01;;;;;;;2.33;1.50;;;;;;;;;;4383532;32;20076;-69
2021/10/14 12:17:38;;;;;;;2.87;1.27;;;;;;;;;;4379647;32;20170;-65
2021/10/14 12:20:13;;;;;;;2.17;1.60;;;;;;;;;;4383844;32;20079;-67
2021/10/14 12:22:41;;;;;;;6.00;2.40;;;;;;;;;;4387063;32;20070;-65
2021/10/14 12:25:08;;;;;;;5.62;1.12;;;;;;;;;;4382819;32;20555;-65
2021/10/14 12:27:55;;;;;;;4.65;1.48;;;;;;;;;;4354644;32;20081;-66
2021/10/14 12:30:39;;;;;;;3.25;1.48;;;;;;;;;;4404874;32;20113;-63
2021/10/14 12:33:11;;;;;;;3.50;1.52;;;;;;;;;;4408366;32;20084;-65
2021/10/14 12:35:50;;;;;;;3.30;1.37;;;;;;;;;;4399771;32;20084;-66
2021/10/14 12:38:16;;;;;;;3.42;1.77;;;;;;;;;;4378603;32;20165;-65
2021/10/14 12:40:57;;;;;;;8.05;2.90;;;;;;;;;;4386666;32;20081;-64
2021/10/14 12:43:30;;;;;;;4.68;1.50;;;;;;;;;;4378737;32;20080;-65
2021/10/14 12:46:56;;;;;;;4.28;1.48;;;;;;;;;;4405039;32;20166;-64
2021/10/14 12:51:42;;;;;;;3.55;1.60;;;;;;;;;;4397592;32;20062;-64
2021/10/14 12:54:13;;;;;;;4.22;1.55;;;;;;;;;;4398431;32;20519;-66
2021/10/14 12:56:40;;;;;;;4.65;1.90;;;;;;;;;;4396392;32;20069;-65
2021/10/14 12:59:07;;;;;;;1.55;1.12;;;;;;;;;;4373465;32;20066;-65
2021/10/14 13:01:35;;;;;;;5.65;1.60;;;;;;;;;;4376434;32;20247;-64
2021/10/14 13:04:01;;;;;;;4.30;1.17;;;;;;;;;;4375995;32;20209;-63
2021/10/14 13:06:28;;;;;;;5.45;1.80;;;;;;;;;;4377557;32;20066;-64
2021/10/14 13:09:00;;;;;;;4.18;1.65;;;;;;;;;;4365502;32;20085;-64
2021/10/14 13:11:33;;;;;;;3.75;1.80;;;;;;;;;;4380484;32;20070;-64
2021/10/14 13:14:00;;;;;;;4.18;1.50;;;;;;;;;;4390402;32;20059;-66
2021/10/14 13:16:28;;;;;;;4.07;1.40;;;;;;;;;;4377754;32;20181;-65
2021/10/14 13:18:55;;;;;;;4.32;1.80;;;;;;;;;;4377816;32;20100;-64
2021/10/14 13:21:22;;;;;;;3.12;1.33;;;;;;;;;;4377317;32;20105;-65
2021/10/14 13:23:49;;;;;;;4.25;1.45;;;;;;;;;;4390013;32;20074;-65
2021/10/14 13:26:16;;;;;;;2.62;1.35;;;;;;;;;;4376536;32;20081;-68
2021/10/14 13:28:43;;;;;;;2.25;1.60;;;;;;;;;;4377202;32;20177;-65
2021/10/14 13:31:11;;;;;;;4.80;1.70;;;;;;;;;;4390062;32;20073;-65
2021/10/14 13:33:42;;;;;;;4.20;1.52;;;;;;;;;;4377452;32;20460;-66
2021/10/14 13:36:18;;;;;;;6.05;1.90;;;;;;;;;;3857175;37;20066;-66
2021/10/14 13:38:51;;;;;;;2.12;0.80;;;;;;;;;;4392996;32;20089;-66
2021/10/14 13:41:20;;;;;;;4.78;1.48;;;;;;;;;;4418481;32;20093;-65
2021/10/14 13:46:24;;;;;;;4.70;1.45;;;;;;;;;;4405583;32;20085;-66
2021/10/14 13:48:51;;;;;;;3.67;1.65;;;;;;;;;;4393196;32;20222;-66
2021/10/14 13:51:17;;;;;;;4.22;1.73;;;;;;;;;;4405720;32;20087;-63
2021/10/14 13:53:44;;;;;;;6.40;1.60;;;;;;;;;;4405241;32;20077;-63
2021/10/14 13:56:10;;;;;;;4.35;1.80;;;;;;;;;;4418200;32;20092;-65
2021/10/14 13:58:37;;;;;;;6.45;1.70;;;;;;;;;;4392653;32;20219;-64
2021/10/14 14:01:04;;;;;;;2.70;1.67;;;;;;;;;;4418068;32;20080;-65
2021/10/14 14:03:30;;;;;;;4.35;1.40;;;;;;;;;;4392873;32;20080;-65
2021/10/14 14:05:57;;;;;;;2.33;1.40;;;;;;;;;;4405094;32;20077;-66
2021/10/14 14:08:23;;;;;;;3.42;1.50;;;;;;;;;;4418326;32;20146;-65
2021/10/14 14:10:50;;;;;;;2.83;1.80;;;;;;;;;;4405542;32;20075;-65
2021/10/14 14:13:17;;;;;;;4.12;1.50;;;;;;;;;;4405470;32;20084;-65
2021/10/14 14:15:45;;;;;;;3.22;1.58;;;;;;;;;;4392354;32;20080;-65
2021/10/14 14:18:12;;;;;;;3.10;1.52;;;;;;;;;;4393281;32;20068;-65
2021/10/14 14:20:41;;;;;;;4.50;1.50;;;;;;;;;;4392698;32;20080;-66
2021/10/14 14:23:08;;;;;;;2.58;1.20;;;;;;;;;;4392756;32;20074;-66
2021/10/14 14:25:35;;;;;;;3.08;1.75;;;;;;;;;;4380162;32;20070;-66
2021/10/14 14:28:02;;;;;;;3.00;1.60;;;;;;;;;;4392605;32;20081;-66
2021/10/14 14:30:28;;;;;;;2.60;1.60;;;;;;;;;;4392016;32;20089;-65
2021/10/14 14:32:55;;;;;;;4.50;1.52;;;;;;;;;;4417727;32;20073;-66
2021/10/14 14:35:21;;;;;;;4.05;1.70;;;;;;;;;;4404426;32;20085;-66
2021/10/14 14:37:48;;;;;;;4.57;2.25;;;;;;;;;;4404870;32;20525;-66
2021/10/14 14:40:15;;;;;;;5.25;1.55;;;;;;;;;;4404807;32;20085;-65
2021/10/14 14:42:41;;;;;;;2.95;1.60;;;;;;;;;;4404874;32;20065;-66
2021/10/14 14:45:08;;;;;;;6.30;1.90;;;;;;;;;;4416986;32;20141;-65
2021/10/14 14:47:41;;;;;;;5.90;1.60;;;;;;;;;;4395184;32;20158;-65
2021/10/14 14:50:20;;;;;;;1.87;1.40;;;;;;;;;;4399901;32;20188;-70
2021/10/14 14:52:46;;;;;;;5.22;1.60;;;;;;;;;;4385516;32;20803;-66
2021/10/14 14:55:13;;;;;;;5.18;1.87;;;;;;;;;;4401035;32;20057;-63
2021/10/14 14:57:39;;;;;;;4.43;2.30;;;;;;;;;;4393025;32;20118;-66
2021/10/14 15:00:07;;;;;;;2.95;1.27;;;;;;;;;;4389627;32;20458;-63
2021/10/14 15:02:34;;;;;;;8.30;1.90;;;;;;;;;;4383453;32;20081;-63
2021/10/14 15:05:00;;;;;;;1.30;1.15;;;;;;;;;;4397900;32;20073;-62